sensor_id;sensor_type;location;lat;lon;timestamp;pressure;altitude;pressure_sealevel;temperature;humidity
77106;BME280;66057;54.718;18.426;2023-08-06T00:00:07;47400.34;;;-143.26;90.96
77106;BME280;66057;54.718;18.426;2023-08-06T00:02:34;47363.28;;;-143.26;91.41
77106;BME280;66057;54.718;18.426;2023-08-06T00:04:59;47390.59;;;-143.26;91.63
77106;BME280;66057;54.718;18.426;2023-08-06T00:07:25;47361.31;;;-143.26;88.99
77106;BME280;66057;54.718;18.426;2023-08-06T00:09:51;47380.81;;;-143.26;88.28
77106;BME280;66057;54.718;18.426;2023-08-06T00:12:17;47351.56;;;-143.26;89.86
77106;BME280;66057;54.718;18.426;2023-08-06T00:14:42;47380.81;;;-143.26;91.63
77106;BME280;66057;54.718;18.426;2023-08-06T00:17:09;47388.63;;;-143.26;91.06
77106;BME280;66057;54.718;18.426;2023-08-06T00:19:35;47388.63;;;-143.26;90.15
77106;BME280;66057;54.718;18.426;2023-08-06T00:22:00;47380.81;;;-143.26;90.59
77106;BME280;66057;54.718;18.426;2023-08-06T00:24:27;47394.47;;;-143.26;90.20
77106;BME280;66057;54.718;18.426;2023-08-06T00:26:53;47376.94;;;-143.26;91.10
77106;BME280;66057;54.718;18.426;2023-08-06T00:29:19;47392.53;;;-143.26;89.51
77106;BME280;66057;54.718;18.426;2023-08-06T00:31:45;47423.75;;;-143.26;87.98
77106;BME280;66057;54.718;18.426;2023-08-06T00:34:10;47357.41;;;-143.26;88.31
77106;BME280;66057;54.718;18.426;2023-08-06T00:36:36;47355.47;;;-143.26;88.10
77106;BME280;66057;54.718;18.426;2023-08-06T00:39:02;47421.78;;;-143.26;89.77
77106;BME280;66057;54.718;18.426;2023-08-06T00:41:28;47367.16;;;-143.26;89.00
77106;BME280;66057;54.718;18.426;2023-08-06T00:43:54;47373.03;;;-143.26;88.45
77106;BME280;66057;54.718;18.426;2023-08-06T00:46:20;47400.34;;;-143.26;92.00
77106;BME280;66057;54.718;18.426;2023-08-06T00:48:46;47359.38;;;-143.26;89.62
77106;BME280;66057;54.718;18.426;2023-08-06T00:51:12;47419.84;;;-143.26;88.39
77106;BME280;66057;54.718;18.426;2023-08-06T00:53:39;47361.31;;;-143.26;88.15
77106;BME280;66057;54.718;18.426;2023-08-06T00:56:08;47384.72;;;-143.26;89.28
77106;BME280;66057;54.718;18.426;2023-08-06T00:58:35;47380.81;;;-143.26;91.56
77106;BME280;66057;54.718;18.426;2023-08-06T01:01:02;47382.78;;;-143.26;92.07
77106;BME280;66057;54.718;18.426;2023-08-06T01:03:28;47347.66;;;-143.26;91.40
77106;BME280;66057;54.718;18.426;2023-08-06T01:05:54;47404.25;;;-143.26;92.00
77106;BME280;66057;54.718;18.426;2023-08-06T01:11:14;47382.78;;;-143.26;90.16
77106;BME280;66057;54.718;18.426;2023-08-06T01:13:48;47392.53;;;-143.26;92.30
77106;BME280;66057;54.718;18.426;2023-08-06T01:16:17;47373.03;;;-143.26;91.44
77106;BME280;66057;54.718;18.426;2023-08-06T01:18:43;47400.34;;;-143.26;90.34
77106;BME280;66057;54.718;18.426;2023-08-06T01:21:18;47373.03;;;-143.26;88.90
77106;BME280;66057;54.718;18.426;2023-08-06T01:23:45;47380.81;;;-143.26;91.63
77106;BME280;66057;54.718;18.426;2023-08-06T01:29:00;47400.34;;;-143.26;90.39
77106;BME280;66057;54.718;18.426;2023-08-06T01:31:32;47380.81;;;-143.26;90.61
77106;BME280;66057;54.718;18.426;2023-08-06T01:34:02;47357.41;;;-143.26;89.32
77106;BME280;66057;54.718;18.426;2023-08-06T01:36:30;47363.28;;;-143.26;90.57
77106;BME280;66057;54.718;18.426;2023-08-06T01:38:56;47367.16;;;-143.26;90.63
77106;BME280;66057;54.718;18.426;2023-08-06T01:41:22;47408.13;;;-143.26;89.71
77106;BME280;66057;54.718;18.426;2023-08-06T01:43:48;47404.25;;;-143.26;90.23
77106;BME280;66057;54.718;18.426;2023-08-06T01:46:14;47355.47;;;-143.26;89.35
77106;BME280;66057;54.718;18.426;2023-08-06T01:48:40;47388.63;;;-143.26;89.00
77106;BME280;66057;54.718;18.426;2023-08-06T01:51:06;47406.19;;;-143.26;88.42
77106;BME280;66057;54.718;18.426;2023-08-06T01:53:34;47384.72;;;-143.26;88.63
77106;BME280;66057;54.718;18.426;2023-08-06T01:56:00;47382.78;;;-143.26;88.58
77106;BME280;66057;54.718;18.426;2023-08-06T01:58:26;47357.41;;;-143.26;88.23
77106;BME280;66057;54.718;18.426;2023-08-06T02:00:51;47398.38;;;-143.26;88.45
77106;BME280;66057;54.718;18.426;2023-08-06T02:03:17;47425.69;;;-143.26;88.70
77106;BME280;66057;54.718;18.426;2023-08-06T02:05:43;47402.28;;;-143.26;88.70
77106;BME280;66057;54.718;18.426;2023-08-06T02:08:08;47382.78;;;-143.26;88.86
77106;BME280;66057;54.718;18.426;2023-08-06T02:10:34;47382.78;;;-143.26;88.76
77106;BME280;66057;54.718;18.426;2023-08-06T02:13:00;47423.75;;;-143.26;88.95
77106;BME280;66057;54.718;18.426;2023-08-06T02:15:25;47363.28;;;-143.26;89.11
77106;BME280;66057;54.718;18.426;2023-08-06T02:17:51;47400.34;;;-143.26;88.81
77106;BME280;66057;54.718;18.426;2023-08-06T02:20:17;47396.44;;;-143.26;88.99
77106;BME280;66057;54.718;18.426;2023-08-06T02:22:43;47378.88;;;-143.26;89.07
77106;BME280;66057;54.718;18.426;2023-08-06T02:25:08;47408.13;;;-143.26;89.02
77106;BME280;66057;54.718;18.426;2023-08-06T02:27:35;47351.56;;;-143.26;89.34
77106;BME280;66057;54.718;18.426;2023-08-06T02:30:02;47402.28;;;-143.26;89.15
77106;BME280;66057;54.718;18.426;2023-08-06T02:32:30;47408.13;;;-143.26;90.13
77106;BME280;66057;54.718;18.426;2023-08-06T02:34:57;47410.09;;;-143.26;90.26
77106;BME280;66057;54.718;18.426;2023-08-06T02:37:23;47400.34;;;-143.26;89.88
77106;BME280;66057;54.718;18.426;2023-08-06T02:39:48;47388.63;;;-143.26;89.53
77106;BME280;66057;54.718;18.426;2023-08-06T02:42:14;47380.81;;;-143.26;89.36
77106;BME280;66057;54.718;18.426;2023-08-06T02:44:39;47421.78;;;-143.26;90.09
77106;BME280;66057;54.718;18.426;2023-08-06T02:47:05;47369.13;;;-143.26;90.03
77106;BME280;66057;54.718;18.426;2023-08-06T02:49:31;47388.63;;;-143.26;90.05
77106;BME280;66057;54.718;18.426;2023-08-06T02:51:56;47353.50;;;-143.26;90.22
77106;BME280;66057;54.718;18.426;2023-08-06T02:54:22;47394.47;;;-143.26;90.29
77106;BME280;66057;54.718;18.426;2023-08-06T02:56:48;47408.13;;;-143.26;92.29
77106;BME280;66057;54.718;18.426;2023-08-06T02:59:13;47396.44;;;-143.26;90.48
77106;BME280;66057;54.718;18.426;2023-08-06T03:01:39;47388.63;;;-143.26;90.25
77106;BME280;66057;54.718;18.426;2023-08-06T03:04:05;47373.03;;;-143.26;89.48
77106;BME280;66057;54.718;18.426;2023-08-06T03:06:31;47396.44;;;-143.26;89.04
77106;BME280;66057;54.718;18.426;2023-08-06T03:08:57;47384.72;;;-143.26;89.85
77106;BME280;66057;54.718;18.426;2023-08-06T03:11:22;47357.41;;;-143.26;88.68
77106;BME280;66057;54.718;18.426;2023-08-06T03:13:48;47412.03;;;-143.26;90.27
77106;BME280;66057;54.718;18.426;2023-08-06T03:16:14;47384.72;;;-143.26;89.16
77106;BME280;66057;54.718;18.426;2023-08-06T03:18:40;47374.97;;;-143.26;88.70
77106;BME280;66057;54.718;18.426;2023-08-06T03:21:06;47373.03;;;-143.26;89.48
77106;BME280;66057;54.718;18.426;2023-08-06T03:23:32;47384.72;;;-143.26;91.42
77106;BME280;66057;54.718;18.426;2023-08-06T03:26:04;47369.13;;;-143.26;91.97
77106;BME280;66057;54.718;18.426;2023-08-06T03:28:30;47376.94;;;-143.26;89.53
77106;BME280;66057;54.718;18.426;2023-08-06T03:31:02;47394.47;;;-143.26;89.34
77106;BME280;66057;54.718;18.426;2023-08-06T03:33:28;47404.25;;;-143.26;91.93
77106;BME280;66057;54.718;18.426;2023-08-06T03:35:54;47382.78;;;-143.26;91.88
77106;BME280;66057;54.718;18.426;2023-08-06T03:38:19;47388.63;;;-143.26;90.13
77106;BME280;66057;54.718;18.426;2023-08-06T03:40:46;47412.03;;;-143.26;88.79
77106;BME280;66057;54.718;18.426;2023-08-06T03:43:12;47369.13;;;-143.26;88.58
77106;BME280;66057;54.718;18.426;2023-08-06T03:45:38;47412.03;;;-143.26;88.47
77106;BME280;66057;54.718;18.426;2023-08-06T03:48:04;47351.56;;;-143.26;88.43
77106;BME280;66057;54.718;18.426;2023-08-06T03:50:30;47384.72;;;-143.26;88.50
77106;BME280;66057;54.718;18.426;2023-08-06T03:52:55;47374.97;;;-143.26;88.51
77106;BME280;66057;54.718;18.426;2023-08-06T03:55:21;47380.81;;;-143.26;88.54
77106;BME280;66057;54.718;18.426;2023-08-06T03:57:47;47388.63;;;-143.26;88.50
77106;BME280;66057;54.718;18.426;2023-08-06T04:00:13;47376.94;;;-143.26;88.58
77106;BME280;66057;54.718;18.426;2023-08-06T04:02:39;47386.69;;;-143.26;88.35
77106;BME280;66057;54.718;18.426;2023-08-06T04:05:05;47365.22;;;-143.26;88.84
77106;BME280;66057;54.718;18.426;2023-08-06T04:07:30;47349.63;;;-143.26;89.38
77106;BME280;66057;54.718;18.426;2023-08-06T04:09:58;47408.13;;;-143.26;89.23
77106;BME280;66057;54.718;18.426;2023-08-06T04:12:24;47392.53;;;-143.26;89.37
77106;BME280;66057;54.718;18.426;2023-08-06T04:14:51;47374.97;;;-143.26;89.23
77106;BME280;66057;54.718;18.426;2023-08-06T04:17:18;47382.78;;;-143.26;89.48
77106;BME280;66057;54.718;18.426;2023-08-06T04:19:51;47400.34;;;-143.26;90.07
77106;BME280;66057;54.718;18.426;2023-08-06T04:22:17;47388.63;;;-143.26;90.15
77106;BME280;66057;54.718;18.426;2023-08-06T04:24:43;47396.44;;;-143.26;90.17
77106;BME280;66057;54.718;18.426;2023-08-06T04:27:10;47392.53;;;-143.26;90.25
77106;BME280;66057;54.718;18.426;2023-08-06T04:29:36;47392.53;;;-143.26;89.90
77106;BME280;66057;54.718;18.426;2023-08-06T04:32:04;47404.25;;;-143.26;89.69
77106;BME280;66057;54.718;18.426;2023-08-06T04:34:29;47404.25;;;-143.26;89.24
77106;BME280;66057;54.718;18.426;2023-08-06T04:36:55;47408.13;;;-143.26;89.57
77106;BME280;66057;54.718;18.426;2023-08-06T04:39:21;47396.44;;;-143.26;89.01
77106;BME280;66057;54.718;18.426;2023-08-06T04:41:47;47380.81;;;-143.26;89.46
77106;BME280;66057;54.718;18.426;2023-08-06T04:44:13;47380.81;;;-143.26;89.44
77106;BME280;66057;54.718;18.426;2023-08-06T04:46:38;47400.34;;;-143.26;89.69
77106;BME280;66057;54.718;18.426;2023-08-06T04:49:04;47427.66;;;-143.26;90.07
77106;BME280;66057;54.718;18.426;2023-08-06T04:51:30;47400.34;;;-143.26;89.69
77106;BME280;66057;54.718;18.426;2023-08-06T04:53:57;47376.94;;;-143.26;89.46
77106;BME280;66057;54.718;18.426;2023-08-06T04:56:23;47373.03;;;-143.26;89.55
77106;BME280;66057;54.718;18.426;2023-08-06T04:58:49;47402.28;;;-143.26;89.61
77106;BME280;66057;54.718;18.426;2023-08-06T05:01:14;47400.34;;;-143.26;89.79
77106;BME280;66057;54.718;18.426;2023-08-06T05:03:40;47410.09;;;-143.26;89.69
77106;BME280;66057;54.718;18.426;2023-08-06T05:06:06;47382.78;;;-143.26;89.97
77106;BME280;66057;54.718;18.426;2023-08-06T05:08:32;47380.81;;;-143.26;89.63
77106;BME280;66057;54.718;18.426;2023-08-06T05:10:57;47400.34;;;-143.26;89.63
77106;BME280;66057;54.718;18.426;2023-08-06T05:13:23;47396.44;;;-143.26;89.57
77106;BME280;66057;54.718;18.426;2023-08-06T05:15:50;47404.25;;;-143.26;89.94
77106;BME280;66057;54.718;18.426;2023-08-06T05:18:16;47394.47;;;-143.26;89.92
77106;BME280;66057;54.718;18.426;2023-08-06T05:20:42;47412.03;;;-143.26;89.76
77106;BME280;66057;54.718;18.426;2023-08-06T05:23:09;47410.09;;;-143.26;90.16
77106;BME280;66057;54.718;18.426;2023-08-06T05:25:35;47398.38;;;-143.26;90.88
77106;BME280;66057;54.718;18.426;2023-08-06T05:28:02;47367.16;;;-143.26;91.01
77106;BME280;66057;54.718;18.426;2023-08-06T05:30:28;47400.34;;;-143.26;89.80
77106;BME280;66057;54.718;18.426;2023-08-06T05:32:54;47378.88;;;-143.26;89.92
77106;BME280;66057;54.718;18.426;2023-08-06T05:35:21;47369.13;;;-143.26;90.59
77106;BME280;66057;54.718;18.426;2023-08-06T05:37:47;47394.47;;;-143.26;90.12
77106;BME280;66057;54.718;18.426;2023-08-06T05:40:13;47396.44;;;-143.26;89.84
77106;BME280;66057;54.718;18.426;2023-08-06T05:42:39;47361.31;;;-143.26;89.34
77106;BME280;66057;54.718;18.426;2023-08-06T05:45:05;47394.47;;;-143.26;89.28
77106;BME280;66057;54.718;18.426;2023-08-06T05:47:31;47359.38;;;-143.26;89.32
77106;BME280;66057;54.718;18.426;2023-08-06T05:49:57;47361.31;;;-143.26;89.73
77106;BME280;66057;54.718;18.426;2023-08-06T05:52:23;47396.44;;;-143.26;89.37
77106;BME280;66057;54.718;18.426;2023-08-06T05:54:48;47382.78;;;-143.26;89.34
77106;BME280;66057;54.718;18.426;2023-08-06T05:57:14;47398.38;;;-143.26;89.35
77106;BME280;66057;54.718;18.426;2023-08-06T05:59:41;47376.94;;;-143.26;89.44
77106;BME280;66057;54.718;18.426;2023-08-06T06:02:07;47376.94;;;-143.26;89.55
77106;BME280;66057;54.718;18.426;2023-08-06T06:04:37;47396.44;;;-143.26;89.88
77106;BME280;66057;54.718;18.426;2023-08-06T06:07:06;47392.53;;;-143.26;89.81
77106;BME280;66057;54.718;18.426;2023-08-06T06:09:32;47394.47;;;-143.26;89.65
77106;BME280;66057;54.718;18.426;2023-08-06T06:11:58;47392.53;;;-143.26;89.55
77106;BME280;66057;54.718;18.426;2023-08-06T06:14:23;47380.81;;;-143.26;88.96
77106;BME280;66057;54.718;18.426;2023-08-06T06:16:49;47414.00;;;-143.26;88.84
77106;BME280;66057;54.718;18.426;2023-08-06T06:19:15;47390.59;;;-143.26;89.09
77106;BME280;66057;54.718;18.426;2023-08-06T06:21:41;47400.34;;;-143.26;88.84
77106;BME280;66057;54.718;18.426;2023-08-06T06:24:06;47415.94;;;-143.26;88.76
77106;BME280;66057;54.718;18.426;2023-08-06T06:26:33;47378.88;;;-143.26;88.15
77106;BME280;66057;54.718;18.426;2023-08-06T06:28:59;47402.28;;;-143.26;87.97
77106;BME280;66057;54.718;18.426;2023-08-06T06:31:25;47398.38;;;-143.26;87.68
77106;BME280;66057;54.718;18.426;2023-08-06T06:33:51;47396.44;;;-143.26;87.47
77106;BME280;66057;54.718;18.426;2023-08-06T06:36:20;47404.25;;;-143.26;87.79
77106;BME280;66057;54.718;18.426;2023-08-06T06:38:46;47373.03;;;-143.26;88.06
77106;BME280;66057;54.718;18.426;2023-08-06T06:41:12;47388.63;;;-143.26;87.89
77106;BME280;66057;54.718;18.426;2023-08-06T06:43:37;47421.78;;;-143.26;87.90
77106;BME280;66057;54.718;18.426;2023-08-06T06:46:05;47400.34;;;-143.26;88.30
77106;BME280;66057;54.718;18.426;2023-08-06T06:48:32;47355.47;;;-143.26;88.33
77106;BME280;66057;54.718;18.426;2023-08-06T06:50:59;47404.25;;;-143.26;88.84
77106;BME280;66057;54.718;18.426;2023-08-06T06:53:24;47419.84;;;-143.26;88.86
77106;BME280;66057;54.718;18.426;2023-08-06T06:55:54;47396.44;;;-143.26;88.96
77106;BME280;66057;54.718;18.426;2023-08-06T06:58:21;47415.94;;;-143.26;88.81
77106;BME280;66057;54.718;18.426;2023-08-06T07:00:48;47404.25;;;-143.26;88.80
77106;BME280;66057;54.718;18.426;2023-08-06T07:03:17;47400.34;;;-143.26;88.56
77106;BME280;66057;54.718;18.426;2023-08-06T07:05:44;47404.25;;;-143.26;88.84
77106;BME280;66057;54.718;18.426;2023-08-06T07:08:10;47369.13;;;-143.26;88.48
77106;BME280;66057;54.718;18.426;2023-08-06T07:10:35;47365.22;;;-143.26;88.86
77106;BME280;66057;54.718;18.426;2023-08-06T07:13:01;47371.06;;;-143.26;89.15
77106;BME280;66057;54.718;18.426;2023-08-06T07:15:27;47359.38;;;-143.26;89.29
77106;BME280;66057;54.718;18.426;2023-08-06T07:17:53;47404.25;;;-143.26;89.48
77106;BME280;66057;54.718;18.426;2023-08-06T07:20:19;47380.81;;;-143.26;89.56
77106;BME280;66057;54.718;18.426;2023-08-06T07:22:44;47386.69;;;-143.26;89.88
77106;BME280;66057;54.718;18.426;2023-08-06T07:25:10;47373.03;;;-143.26;90.00
77106;BME280;66057;54.718;18.426;2023-08-06T07:27:36;47402.28;;;-143.26;89.78
77106;BME280;66057;54.718;18.426;2023-08-06T07:30:03;47384.72;;;-143.26;89.76
77106;BME280;66057;54.718;18.426;2023-08-06T07:32:28;47396.44;;;-143.26;89.88
77106;BME280;66057;54.718;18.426;2023-08-06T07:34:54;47412.03;;;-143.26;89.90
77106;BME280;66057;54.718;18.426;2023-08-06T07:37:25;47380.81;;;-143.26;89.70
77106;BME280;66057;54.718;18.426;2023-08-06T07:39:50;47404.25;;;-143.26;89.80
77106;BME280;66057;54.718;18.426;2023-08-06T07:42:17;47376.94;;;-143.26;89.74
77106;BME280;66057;54.718;18.426;2023-08-06T07:44:54;47365.22;;;-143.26;89.99
77106;BME280;66057;54.718;18.426;2023-08-06T07:47:20;47390.59;;;-143.26;89.54
77106;BME280;66057;54.718;18.426;2023-08-06T07:49:46;47371.06;;;-143.26;89.69
77106;BME280;66057;54.718;18.426;2023-08-06T07:52:11;47398.38;;;-143.26;89.90
77106;BME280;66057;54.718;18.426;2023-08-06T07:54:37;47384.72;;;-143.26;89.85
77106;BME280;66057;54.718;18.426;2023-08-06T07:57:03;47365.22;;;-143.26;90.01
77106;BME280;66057;54.718;18.426;2023-08-06T07:59:29;47365.22;;;-143.26;90.44
77106;BME280;66057;54.718;18.426;2023-08-06T08:01:54;47384.72;;;-143.26;90.49
77106;BME280;66057;54.718;18.426;2023-08-06T08:04:20;47363.28;;;-143.26;90.57
77106;BME280;66057;54.718;18.426;2023-08-06T08:06:46;47376.94;;;-143.26;91.63
77106;BME280;66057;54.718;18.426;2023-08-06T08:09:13;47373.03;;;-143.26;91.58
77106;BME280;66057;54.718;18.426;2023-08-06T08:11:39;47378.88;;;-143.26;91.46
77106;BME280;66057;54.718;18.426;2023-08-06T08:14:06;47363.28;;;-143.26;90.94
77106;BME280;66057;54.718;18.426;2023-08-06T08:16:32;47415.94;;;-143.26;90.58
77106;BME280;66057;54.718;18.426;2023-08-06T08:18:58;47353.50;;;-143.26;89.81
77106;BME280;66057;54.718;18.426;2023-08-06T08:21:24;47402.28;;;-143.26;89.74
77106;BME280;66057;54.718;18.426;2023-08-06T08:23:50;47367.16;;;-143.26;90.86
77106;BME280;66057;54.718;18.426;2023-08-06T08:26:16;47380.81;;;-143.26;91.14
77106;BME280;66057;54.718;18.426;2023-08-06T08:28:43;47386.69;;;-143.26;92.08
77106;BME280;66057;54.718;18.426;2023-08-06T08:31:09;47359.38;;;-143.26;91.68
77106;BME280;66057;54.718;18.426;2023-08-06T08:33:35;47386.69;;;-143.26;92.16
77106;BME280;66057;54.718;18.426;2023-08-06T08:36:01;47398.38;;;-143.26;91.70
77106;BME280;66057;54.718;18.426;2023-08-06T08:38:26;47361.31;;;-143.26;92.30
77106;BME280;66057;54.718;18.426;2023-08-06T08:40:53;47396.44;;;-143.26;92.29
77106;BME280;66057;54.718;18.426;2023-08-06T08:43:23;47351.56;;;-143.26;93.34
77106;BME280;66057;54.718;18.426;2023-08-06T08:45:50;47361.31;;;-143.26;92.07
77106;BME280;66057;54.718;18.426;2023-08-06T08:48:17;47384.72;;;-143.26;92.34
77106;BME280;66057;54.718;18.426;2023-08-06T08:50:45;47388.63;;;-143.26;93.22
77106;BME280;66057;54.718;18.426;2023-08-06T08:53:14;47386.69;;;-143.26;93.23
77106;BME280;66057;54.718;18.426;2023-08-06T08:55:40;47359.38;;;-143.26;93.36
77106;BME280;66057;54.718;18.426;2023-08-06T08:58:08;47384.72;;;-143.26;94.04
77106;BME280;66057;54.718;18.426;2023-08-06T09:00:33;47402.28;;;-143.26;92.82
77106;BME280;66057;54.718;18.426;2023-08-06T09:03:01;47357.41;;;-143.26;92.39
77106;BME280;66057;54.718;18.426;2023-08-06T09:05:29;47384.72;;;-143.26;92.83
77106;BME280;66057;54.718;18.426;2023-08-06T09:08:04;47374.97;;;-143.26;93.39
77106;BME280;66057;54.718;18.426;2023-08-06T09:10:30;47408.13;;;-143.26;93.24
77106;BME280;66057;54.718;18.426;2023-08-06T09:12:57;47355.47;;;-143.26;92.87
77106;BME280;66057;54.718;18.426;2023-08-06T09:15:26;47369.13;;;-143.26;92.53
77106;BME280;66057;54.718;18.426;2023-08-06T09:17:54;47374.97;;;-143.26;92.60
77106;BME280;66057;54.718;18.426;2023-08-06T09:20:20;47365.22;;;-143.26;92.89
77106;BME280;66057;54.718;18.426;2023-08-06T09:22:46;47373.03;;;-143.26;92.59
77106;BME280;66057;54.718;18.426;2023-08-06T09:25:24;47349.63;;;-143.26;92.22
77106;BME280;66057;54.718;18.426;2023-08-06T09:27:51;47406.19;;;-143.26;91.88
77106;BME280;66057;54.718;18.426;2023-08-06T09:30:31;47371.06;;;-143.26;92.75
77106;BME280;66057;54.718;18.426;2023-08-06T09:32:57;47374.97;;;-143.26;92.11
77106;BME280;66057;54.718;18.426;2023-08-06T09:35:23;47373.03;;;-143.26;91.25
77106;BME280;66057;54.718;18.426;2023-08-06T09:37:52;47392.53;;;-143.26;91.21
77106;BME280;66057;54.718;18.426;2023-08-06T09:40:28;47371.06;;;-143.26;91.10
77106;BME280;66057;54.718;18.426;2023-08-06T09:42:55;47398.38;;;-143.26;91.27
77106;BME280;66057;54.718;18.426;2023-08-06T09:45:21;47396.44;;;-143.26;91.74
77106;BME280;66057;54.718;18.426;2023-08-06T09:47:52;47396.44;;;-143.26;91.49
77106;BME280;66057;54.718;18.426;2023-08-06T09:50:20;47365.22;;;-143.26;92.16
77106;BME280;66057;54.718;18.426;2023-08-06T09:52:47;47388.63;;;-143.26;92.27
77106;BME280;66057;54.718;18.426;2023-08-06T09:55:14;47388.63;;;-143.26;91.46
77106;BME280;66057;54.718;18.426;2023-08-06T09:57:41;47376.94;;;-143.26;91.49
77106;BME280;66057;54.718;18.426;2023-08-06T10:00:09;47400.34;;;-143.26;91.58
77106;BME280;66057;54.718;18.426;2023-08-06T10:02:37;47419.84;;;-143.26;92.00
77106;BME280;66057;54.718;18.426;2023-08-06T10:05:05;47384.72;;;-143.26;92.20
77106;BME280;66057;54.718;18.426;2023-08-06T10:07:31;47357.41;;;-143.26;93.15
77106;BME280;66057;54.718;18.426;2023-08-06T10:09:56;47371.06;;;-143.26;93.27
77106;BME280;66057;54.718;18.426;2023-08-06T10:12:23;47396.44;;;-143.26;93.10
77106;BME280;66057;54.718;18.426;2023-08-06T10:14:53;47402.28;;;-143.26;92.52
77106;BME280;66057;54.718;18.426;2023-08-06T10:17:21;47396.44;;;-143.26;92.74
77106;BME280;66057;54.718;18.426;2023-08-06T10:19:48;47396.44;;;-143.26;91.65
77106;BME280;66057;54.718;18.426;2023-08-06T10:22:16;47376.94;;;-143.26;90.93
77106;BME280;66057;54.718;18.426;2023-08-06T10:24:50;47404.25;;;-143.26;91.38
77106;BME280;66057;54.718;18.426;2023-08-06T10:30:24;47398.38;;;-143.26;90.98
77106;BME280;66057;54.718;18.426;2023-08-06T10:33:01;47365.22;;;-143.26;90.87
77106;BME280;66057;54.718;18.426;2023-08-06T10:35:31;47394.47;;;-143.26;90.06
77106;BME280;66057;54.718;18.426;2023-08-06T10:38:05;47355.47;;;-143.26;90.41
77106;BME280;66057;54.718;18.426;2023-08-06T10:40:32;47396.44;;;-143.26;90.91
77106;BME280;66057;54.718;18.426;2023-08-06T10:43:02;47390.59;;;-143.26;89.85
77106;BME280;66057;54.718;18.426;2023-08-06T10:45:28;47408.13;;;-143.26;89.20
77106;BME280;66057;54.718;18.426;2023-08-06T10:47:56;47365.22;;;-143.26;89.47
77106;BME280;66057;54.718;18.426;2023-08-06T10:50:23;47373.03;;;-143.26;89.27
77106;BME280;66057;54.718;18.426;2023-08-06T10:52:50;47374.97;;;-143.26;90.01
77106;BME280;66057;54.718;18.426;2023-08-06T10:55:28;47365.22;;;-143.26;90.73
77106;BME280;66057;54.718;18.426;2023-08-06T10:57:55;47373.03;;;-143.26;90.18
77106;BME280;66057;54.718;18.426;2023-08-06T11:00:22;47376.94;;;-143.26;90.27
77106;BME280;66057;54.718;18.426;2023-08-06T11:02:51;47374.97;;;-143.26;90.72
77106;BME280;66057;54.718;18.426;2023-08-06T11:05:17;47373.03;;;-143.26;91.46
77106;BME280;66057;54.718;18.426;2023-08-06T11:07:43;47396.44;;;-143.26;90.59
77106;BME280;66057;54.718;18.426;2023-08-06T11:10:11;47373.03;;;-143.26;91.80
77106;BME280;66057;54.718;18.426;2023-08-06T11:12:38;47374.97;;;-143.26;91.54
77106;BME280;66057;54.718;18.426;2023-08-06T11:15:04;47373.03;;;-143.26;91.40
77106;BME280;66057;54.718;18.426;2023-08-06T11:17:32;47367.16;;;-143.26;92.24
77106;BME280;66057;54.718;18.426;2023-08-06T11:20:03;47382.78;;;-143.26;92.58
77106;BME280;66057;54.718;18.426;2023-08-06T11:22:30;47382.78;;;-143.26;92.68
77106;BME280;66057;54.718;18.426;2023-08-06T11:24:55;47384.72;;;-143.26;92.68
77106;BME280;66057;54.718;18.426;2023-08-06T11:27:21;47374.97;;;-143.26;93.01
77106;BME280;66057;54.718;18.426;2023-08-06T11:29:47;47398.38;;;-143.26;93.05
77106;BME280;66057;54.718;18.426;2023-08-06T11:32:13;47349.63;;;-143.26;92.53
77106;BME280;66057;54.718;18.426;2023-08-06T11:34:39;47351.56;;;-143.26;91.40
77106;BME280;66057;54.718;18.426;2023-08-06T11:37:06;47365.22;;;-143.26;90.83
77106;BME280;66057;54.718;18.426;2023-08-06T11:39:32;47378.88;;;-143.26;91.51
77106;BME280;66057;54.718;18.426;2023-08-06T11:41:58;47349.63;;;-143.26;91.17
77106;BME280;66057;54.718;18.426;2023-08-06T11:44:30;47353.50;;;-143.26;91.25
77106;BME280;66057;54.718;18.426;2023-08-06T11:46:58;47334.00;;;-143.26;91.20
77106;BME280;66057;54.718;18.426;2023-08-06T11:49:46;47335.97;;;-143.26;91.16
77106;BME280;66057;54.718;18.426;2023-08-06T11:52:20;47341.81;;;-143.26;90.61
77106;BME280;66057;54.718;18.426;2023-08-06T11:55:05;47298.91;;;-143.26;90.13
77106;BME280;66057;54.718;18.426;2023-08-06T11:57:38;47349.63;;;-143.26;89.81
77106;BME280;66057;54.718;18.426;2023-08-06T12:00:13;47357.41;;;-143.26;89.66
77106;BME280;66057;54.718;18.426;2023-08-06T12:02:41;47308.66;;;-143.26;89.37
77106;BME280;66057;54.718;18.426;2023-08-06T12:05:12;47326.19;;;-143.26;88.59
77106;BME280;66057;54.718;18.426;2023-08-06T12:07:41;47332.06;;;-143.26;89.04
77106;BME280;66057;54.718;18.426;2023-08-06T12:10:08;47384.72;;;-143.26;88.91
77106;BME280;66057;54.718;18.426;2023-08-06T12:12:34;47335.97;;;-143.26;89.28
77106;BME280;66057;54.718;18.426;2023-08-06T12:15:01;47332.06;;;-143.26;89.34
77106;BME280;66057;54.718;18.426;2023-08-06T12:17:27;47326.19;;;-143.26;89.18
77106;BME280;66057;54.718;18.426;2023-08-06T12:19:53;47335.97;;;-143.26;88.94
77106;BME280;66057;54.718;18.426;2023-08-06T12:22:19;47326.19;;;-143.26;88.70
77106;BME280;66057;54.718;18.426;2023-08-06T12:24:45;47357.41;;;-143.26;88.70
77106;BME280;66057;54.718;18.426;2023-08-06T12:27:12;47310.59;;;-143.26;88.79
77106;BME280;66057;54.718;18.426;2023-08-06T12:29:40;47310.59;;;-143.26;88.48
77106;BME280;66057;54.718;18.426;2023-08-06T12:32:07;47335.97;;;-143.26;88.10
77106;BME280;66057;54.718;18.426;2023-08-06T12:34:33;47293.03;;;-143.26;87.60
77106;BME280;66057;54.718;18.426;2023-08-06T12:36:59;47320.34;;;-143.26;87.22